GMMC

Anfa Airport

Casablanca, Morocco
METAR GMMC 192000Z 28002KT 5000 FEW016 15/13 Q1023
Observed Flight Rules
Jan-19 @ 20:00 UTC (5 hours ago) Marginal Visual Flight Rules
Wind Visibility Clouds
280° at 2 knots 5,005 meters
  • Few at 1,600' AGL
Temperatures Readings
Current 15°C / 59°F
Dewpoint 13°C / 55°F
Humidity 88%
Altimeter 30.21" Hg
Pressure 1023 hPa
Elevation 62
METAR GMMC 192000Z 28002KT 5000 FEW016 15/13 Q1023
Observed Flight Rules
Jan-19 @ 20:00 UTC
(5 hours ago)
MVFR
Wind Visibility
280° at 2 knots 5,005 meters
Clouds
  • Few at 1,600' AGL
Temperature Dewpoint
15°C / 59°F 13°C / 55°F
Humidity Altimeter Pressure
88% 30.21" Hg 1023 hPa